sensor_id;sensor_type;location;lat;lon;timestamp;temperature;humidity
15452;DHT22;7827;53.594;9.938;2023-05-20T00:01:26;11.80;49.80
15452;DHT22;7827;53.594;9.938;2023-05-20T00:03:55;11.70;23.10
15452;DHT22;7827;53.594;9.938;2023-05-20T00:06:24;11.70;27.80
15452;DHT22;7827;53.594;9.938;2023-05-20T00:08:52;11.70;1.00
15452;DHT22;7827;53.594;9.938;2023-05-20T00:11:21;11.60;5.40
15452;DHT22;7827;53.594;9.938;2023-05-20T00:13:51;11.60;19.00
15452;DHT22;7827;53.594;9.938;2023-05-20T00:16:19;11.60;86.40
15452;DHT22;7827;53.594;9.938;2023-05-20T00:18:47;11.50;30.90
15452;DHT22;7827;53.594;9.938;2023-05-20T00:21:16;11.50;51.60
15452;DHT22;7827;53.594;9.938;2023-05-20T00:23:44;11.60;30.50
15452;DHT22;7827;53.594;9.938;2023-05-20T00:26:12;11.50;77.30
15452;DHT22;7827;53.594;9.938;2023-05-20T00:28:41;11.50;99.90
15452;DHT22;7827;53.594;9.938;2023-05-20T00:31:10;11.50;93.70
15452;DHT22;7827;53.594;9.938;2023-05-20T00:33:39;11.50;99.90
15452;DHT22;7827;53.594;9.938;2023-05-20T00:36:08;11.50;99.90
15452;DHT22;7827;53.594;9.938;2023-05-20T00:38:36;11.40;99.90
15452;DHT22;7827;53.594;9.938;2023-05-20T00:41:04;11.30;99.90
15452;DHT22;7827;53.594;9.938;2023-05-20T00:43:33;11.30;99.90
15452;DHT22;7827;53.594;9.938;2023-05-20T00:46:01;11.30;99.90
15452;DHT22;7827;53.594;9.938;2023-05-20T00:48:37;11.40;99.90
15452;DHT22;7827;53.594;9.938;2023-05-20T00:51:09;11.40;99.90
15452;DHT22;7827;53.594;9.938;2023-05-20T00:53:37;11.30;99.90
15452;DHT22;7827;53.594;9.938;2023-05-20T00:56:07;11.30;99.90
15452;DHT22;7827;53.594;9.938;2023-05-20T00:58:36;11.30;99.90
15452;DHT22;7827;53.594;9.938;2023-05-20T01:01:05;11.20;99.90
15452;DHT22;7827;53.594;9.938;2023-05-20T01:03:35;11.20;99.90
15452;DHT22;7827;53.594;9.938;2023-05-20T01:06:04;11.20;99.90
15452;DHT22;7827;53.594;9.938;2023-05-20T01:08:32;11.20;99.90
15452;DHT22;7827;53.594;9.938;2023-05-20T01:11:03;11.20;99.90
15452;DHT22;7827;53.594;9.938;2023-05-20T01:13:41;11.00;1.00
15452;DHT22;7827;53.594;9.938;2023-05-20T01:16:13;11.00;1.00
15452;DHT22;7827;53.594;9.938;2023-05-20T01:18:46;11.00;1.00
15452;DHT22;7827;53.594;9.938;2023-05-20T01:21:16;11.00;1.00
15452;DHT22;7827;53.594;9.938;2023-05-20T01:23:47;11.10;1.00
15452;DHT22;7827;53.594;9.938;2023-05-20T01:26:15;11.20;1.00
15452;DHT22;7827;53.594;9.938;2023-05-20T01:28:45;11.20;1.00
15452;DHT22;7827;53.594;9.938;2023-05-20T01:31:17;11.20;1.00
15452;DHT22;7827;53.594;9.938;2023-05-20T01:33:53;11.20;1.00
15452;DHT22;7827;53.594;9.938;2023-05-20T01:36:24;11.10;1.00
15452;DHT22;7827;53.594;9.938;2023-05-20T01:38:55;11.00;1.00
15452;DHT22;7827;53.594;9.938;2023-05-20T01:41:25;11.10;1.00
15452;DHT22;7827;53.594;9.938;2023-05-20T01:43:55;11.10;54.10
15452;DHT22;7827;53.594;9.938;2023-05-20T01:46:24;11.10;99.90
15452;DHT22;7827;53.594;9.938;2023-05-20T01:48:52;11.10;99.90
15452;DHT22;7827;53.594;9.938;2023-05-20T01:51:21;11.00;1.00
15452;DHT22;7827;53.594;9.938;2023-05-20T01:53:49;11.10;1.00
15452;DHT22;7827;53.594;9.938;2023-05-20T01:56:19;11.00;1.00
15452;DHT22;7827;53.594;9.938;2023-05-20T01:58:48;11.00;1.00
15452;DHT22;7827;53.594;9.938;2023-05-20T02:01:16;10.90;99.90
15452;DHT22;7827;53.594;9.938;2023-05-20T02:03:45;10.80;1.00
15452;DHT22;7827;53.594;9.938;2023-05-20T02:06:13;10.80;1.00
15452;DHT22;7827;53.594;9.938;2023-05-20T02:08:41;10.80;15.10
15452;DHT22;7827;53.594;9.938;2023-05-20T02:11:10;10.80;50.40
15452;DHT22;7827;53.594;9.938;2023-05-20T02:13:39;10.80;28.10
15452;DHT22;7827;53.594;9.938;2023-05-20T02:16:08;10.80;99.90
15452;DHT22;7827;53.594;9.938;2023-05-20T02:18:36;10.70;1.00
15452;DHT22;7827;53.594;9.938;2023-05-20T02:21:05;10.70;1.00
15452;DHT22;7827;53.594;9.938;2023-05-20T02:23:33;10.70;1.00
15452;DHT22;7827;53.594;9.938;2023-05-20T02:26:02;10.60;99.90
15452;DHT22;7827;53.594;9.938;2023-05-20T02:28:30;10.70;86.10
15452;DHT22;7827;53.594;9.938;2023-05-20T02:31:00;10.70;1.00
15452;DHT22;7827;53.594;9.938;2023-05-20T02:33:30;10.60;1.00
15452;DHT22;7827;53.594;9.938;2023-05-20T02:35:59;10.70;1.00
15452;DHT22;7827;53.594;9.938;2023-05-20T02:38:27;10.70;1.00
15452;DHT22;7827;53.594;9.938;2023-05-20T02:40:57;10.70;1.00
15452;DHT22;7827;53.594;9.938;2023-05-20T02:43:25;10.60;1.00
15452;DHT22;7827;53.594;9.938;2023-05-20T02:45:54;10.60;99.90
15452;DHT22;7827;53.594;9.938;2023-05-20T02:48:24;10.60;1.00
15452;DHT22;7827;53.594;9.938;2023-05-20T02:50:52;10.60;71.80
15452;DHT22;7827;53.594;9.938;2023-05-20T02:53:21;10.60;99.90
15452;DHT22;7827;53.594;9.938;2023-05-20T02:55:49;10.60;99.90
15452;DHT22;7827;53.594;9.938;2023-05-20T02:58:17;10.60;99.90
15452;DHT22;7827;53.594;9.938;2023-05-20T03:00:52;10.50;99.90
15452;DHT22;7827;53.594;9.938;2023-05-20T03:03:20;10.50;99.90
15452;DHT22;7827;53.594;9.938;2023-05-20T03:05:50;10.40;1.00
15452;DHT22;7827;53.594;9.938;2023-05-20T03:08:20;10.40;99.90
15452;DHT22;7827;53.594;9.938;2023-05-20T03:10:49;10.30;99.90
15452;DHT22;7827;53.594;9.938;2023-05-20T03:13:17;10.30;1.00
15452;DHT22;7827;53.594;9.938;2023-05-20T03:15:46;10.30;1.00
15452;DHT22;7827;53.594;9.938;2023-05-20T03:18:14;10.30;1.00
15452;DHT22;7827;53.594;9.938;2023-05-20T03:20:45;10.30;1.00
15452;DHT22;7827;53.594;9.938;2023-05-20T03:23:15;10.30;1.00
15452;DHT22;7827;53.594;9.938;2023-05-20T03:25:43;10.30;99.90
15452;DHT22;7827;53.594;9.938;2023-05-20T03:28:12;10.40;1.00
15452;DHT22;7827;53.594;9.938;2023-05-20T03:30:40;10.40;1.00
15452;DHT22;7827;53.594;9.938;2023-05-20T03:33:13;10.40;99.90
15452;DHT22;7827;53.594;9.938;2023-05-20T03:35:42;10.40;92.20
15452;DHT22;7827;53.594;9.938;2023-05-20T03:38:11;10.40;99.90
15452;DHT22;7827;53.594;9.938;2023-05-20T03:40:41;10.30;99.90
15452;DHT22;7827;53.594;9.938;2023-05-20T03:43:09;10.30;1.00
15452;DHT22;7827;53.594;9.938;2023-05-20T03:45:38;10.40;1.00
15452;DHT22;7827;53.594;9.938;2023-05-20T03:48:07;10.40;99.90
15452;DHT22;7827;53.594;9.938;2023-05-20T03:50:35;10.40;99.90
15452;DHT22;7827;53.594;9.938;2023-05-20T03:53:03;10.40;99.90
15452;DHT22;7827;53.594;9.938;2023-05-20T03:55:37;10.30;1.00
15452;DHT22;7827;53.594;9.938;2023-05-20T03:58:09;10.20;1.00
15452;DHT22;7827;53.594;9.938;2023-05-20T04:00:39;10.30;1.00
15452;DHT22;7827;53.594;9.938;2023-05-20T04:03:10;10.40;99.90
15452;DHT22;7827;53.594;9.938;2023-05-20T04:05:39;10.50;99.90
15452;DHT22;7827;53.594;9.938;2023-05-20T04:08:16;10.50;99.90
15452;DHT22;7827;53.594;9.938;2023-05-20T04:10:45;10.60;99.90
15452;DHT22;7827;53.594;9.938;2023-05-20T04:13:15;10.70;99.90
15452;DHT22;7827;53.594;9.938;2023-05-20T04:15:44;10.80;99.90
15452;DHT22;7827;53.594;9.938;2023-05-20T04:18:12;11.00;99.90
15452;DHT22;7827;53.594;9.938;2023-05-20T04:20:41;11.30;1.00
15452;DHT22;7827;53.594;9.938;2023-05-20T04:23:11;11.40;71.10
15452;DHT22;7827;53.594;9.938;2023-05-20T04:25:40;11.60;99.90
15452;DHT22;7827;53.594;9.938;2023-05-20T04:28:11;11.70;99.90
15452;DHT22;7827;53.594;9.938;2023-05-20T04:30:43;11.70;39.30
15452;DHT22;7827;53.594;9.938;2023-05-20T04:33:12;11.60;1.00
15452;DHT22;7827;53.594;9.938;2023-05-20T04:35:41;11.60;1.00
15452;DHT22;7827;53.594;9.938;2023-05-20T04:38:10;11.70;1.00
15452;DHT22;7827;53.594;9.938;2023-05-20T04:40:38;11.90;1.00
15452;DHT22;7827;53.594;9.938;2023-05-20T04:43:07;12.10;99.90
15452;DHT22;7827;53.594;9.938;2023-05-20T04:45:35;12.20;99.90
15452;DHT22;7827;53.594;9.938;2023-05-20T04:48:05;12.20;99.90
15452;DHT22;7827;53.594;9.938;2023-05-20T04:50:36;12.20;1.00
15452;DHT22;7827;53.594;9.938;2023-05-20T04:53:06;12.10;99.90
15452;DHT22;7827;53.594;9.938;2023-05-20T04:55:34;12.00;99.90
15452;DHT22;7827;53.594;9.938;2023-05-20T04:58:04;12.00;99.90
15452;DHT22;7827;53.594;9.938;2023-05-20T05:00:34;12.10;1.00
15452;DHT22;7827;53.594;9.938;2023-05-20T05:03:02;12.10;1.00
15452;DHT22;7827;53.594;9.938;2023-05-20T05:05:33;12.10;1.00
15452;DHT22;7827;53.594;9.938;2023-05-20T05:08:02;12.10;1.00
15452;DHT22;7827;53.594;9.938;2023-05-20T05:10:34;12.10;99.90
15452;DHT22;7827;53.594;9.938;2023-05-20T05:13:03;12.00;1.00
15452;DHT22;7827;53.594;9.938;2023-05-20T05:15:32;12.00;1.00
15452;DHT22;7827;53.594;9.938;2023-05-20T05:18:02;11.90;1.00
15452;DHT22;7827;53.594;9.938;2023-05-20T05:20:33;12.00;1.00
15452;DHT22;7827;53.594;9.938;2023-05-20T05:23:02;12.10;1.00
15452;DHT22;7827;53.594;9.938;2023-05-20T05:25:30;12.20;99.90
15452;DHT22;7827;53.594;9.938;2023-05-20T05:27:59;12.30;1.00
15452;DHT22;7827;53.594;9.938;2023-05-20T05:30:27;12.40;99.90
15452;DHT22;7827;53.594;9.938;2023-05-20T05:32:56;12.50;1.00
15452;DHT22;7827;53.594;9.938;2023-05-20T05:35:24;12.70;1.00
15452;DHT22;7827;53.594;9.938;2023-05-20T05:37:54;12.60;99.90
15452;DHT22;7827;53.594;9.938;2023-05-20T05:40:22;12.70;1.00
15452;DHT22;7827;53.594;9.938;2023-05-20T05:42:52;12.80;99.90
15452;DHT22;7827;53.594;9.938;2023-05-20T05:45:21;12.90;1.00
15452;DHT22;7827;53.594;9.938;2023-05-20T05:47:49;12.90;1.00
15452;DHT22;7827;53.594;9.938;2023-05-20T05:50:17;12.90;99.90
15452;DHT22;7827;53.594;9.938;2023-05-20T05:52:46;12.90;99.90
15452;DHT22;7827;53.594;9.938;2023-05-20T05:55:16;13.10;40.70
15452;DHT22;7827;53.594;9.938;2023-05-20T05:57:45;13.10;1.00
15452;DHT22;7827;53.594;9.938;2023-05-20T06:00:15;13.10;76.10
15452;DHT22;7827;53.594;9.938;2023-05-20T06:02:44;13.20;1.00
15452;DHT22;7827;53.594;9.938;2023-05-20T06:05:26;13.10;99.90
15452;DHT22;7827;53.594;9.938;2023-05-20T06:07:56;13.20;53.30
15452;DHT22;7827;53.594;9.938;2023-05-20T06:10:26;13.40;1.00
15452;DHT22;7827;53.594;9.938;2023-05-20T06:12:55;13.40;1.00
15452;DHT22;7827;53.594;9.938;2023-05-20T06:15:24;13.40;99.90
15452;DHT22;7827;53.594;9.938;2023-05-20T06:17:52;13.50;1.00
15452;DHT22;7827;53.594;9.938;2023-05-20T06:20:21;13.60;99.90
15452;DHT22;7827;53.594;9.938;2023-05-20T06:22:50;13.70;1.00
15452;DHT22;7827;53.594;9.938;2023-05-20T06:25:18;13.80;71.80
15452;DHT22;7827;53.594;9.938;2023-05-20T06:27:51;13.80;1.00
15452;DHT22;7827;53.594;9.938;2023-05-20T06:30:21;14.00;99.90
15452;DHT22;7827;53.594;9.938;2023-05-20T06:32:49;14.10;1.00
15452;DHT22;7827;53.594;9.938;2023-05-20T06:35:18;14.00;1.00
15452;DHT22;7827;53.594;9.938;2023-05-20T06:37:46;14.10;1.00
15452;DHT22;7827;53.594;9.938;2023-05-20T06:40:15;14.10;99.90
15452;DHT22;7827;53.594;9.938;2023-05-20T06:42:45;14.10;99.90
15452;DHT22;7827;53.594;9.938;2023-05-20T06:45:14;14.20;1.00
15452;DHT22;7827;53.594;9.938;2023-05-20T06:47:53;14.30;99.90
15452;DHT22;7827;53.594;9.938;2023-05-20T06:50:22;14.30;99.90
15452;DHT22;7827;53.594;9.938;2023-05-20T06:52:50;14.30;1.00
15452;DHT22;7827;53.594;9.938;2023-05-20T06:55:19;14.30;1.00
15452;DHT22;7827;53.594;9.938;2023-05-20T06:57:47;14.30;99.90
15452;DHT22;7827;53.594;9.938;2023-05-20T07:00:19;14.40;1.00
15452;DHT22;7827;53.594;9.938;2023-05-20T07:02:47;14.50;99.90
15452;DHT22;7827;53.594;9.938;2023-05-20T07:05:16;14.40;64.30
15452;DHT22;7827;53.594;9.938;2023-05-20T07:07:44;14.70;99.90
15452;DHT22;7827;53.594;9.938;2023-05-20T07:10:14;14.80;1.00
15452;DHT22;7827;53.594;9.938;2023-05-20T07:12:42;15.00;1.00
15452;DHT22;7827;53.594;9.938;2023-05-20T07:15:11;15.10;1.00
15452;DHT22;7827;53.594;9.938;2023-05-20T07:17:40;15.00;1.00
15452;DHT22;7827;53.594;9.938;2023-05-20T07:20:09;15.10;99.90
15452;DHT22;7827;53.594;9.938;2023-05-20T07:22:38;15.30;73.90
15452;DHT22;7827;53.594;9.938;2023-05-20T07:25:39;15.40;1.00
15452;DHT22;7827;53.594;9.938;2023-05-20T07:28:07;15.60;1.00
15452;DHT22;7827;53.594;9.938;2023-05-20T07:30:37;15.60;1.00
15452;DHT22;7827;53.594;9.938;2023-05-20T07:33:15;15.40;1.00
15452;DHT22;7827;53.594;9.938;2023-05-20T07:35:45;15.50;4.40
15452;DHT22;7827;53.594;9.938;2023-05-20T07:38:13;15.60;48.30
15452;DHT22;7827;53.594;9.938;2023-05-20T07:40:44;15.70;1.00
15452;DHT22;7827;53.594;9.938;2023-05-20T07:43:13;15.70;99.90
15452;DHT22;7827;53.594;9.938;2023-05-20T07:45:41;15.70;1.00
15452;DHT22;7827;53.594;9.938;2023-05-20T07:48:10;15.80;1.00
15452;DHT22;7827;53.594;9.938;2023-05-20T07:50:40;15.90;1.00
15452;DHT22;7827;53.594;9.938;2023-05-20T07:53:09;16.00;99.90
15452;DHT22;7827;53.594;9.938;2023-05-20T07:55:38;16.00;99.90
15452;DHT22;7827;53.594;9.938;2023-05-20T07:58:06;16.10;99.90
15452;DHT22;7827;53.594;9.938;2023-05-20T08:00:35;16.10;1.00
15452;DHT22;7827;53.594;9.938;2023-05-20T08:03:06;16.20;1.00
15452;DHT22;7827;53.594;9.938;2023-05-20T08:05:53;16.30;1.00
15452;DHT22;7827;53.594;9.938;2023-05-20T08:08:22;16.40;1.00
15452;DHT22;7827;53.594;9.938;2023-05-20T08:10:55;16.40;1.00
15452;DHT22;7827;53.594;9.938;2023-05-20T08:13:25;16.50;1.00
15452;DHT22;7827;53.594;9.938;2023-05-20T08:15:54;16.50;1.00
15452;DHT22;7827;53.594;9.938;2023-05-20T08:18:24;16.40;1.00
15452;DHT22;7827;53.594;9.938;2023-05-20T08:20:54;16.60;1.00
15452;DHT22;7827;53.594;9.938;2023-05-20T08:23:25;16.50;1.00
15452;DHT22;7827;53.594;9.938;2023-05-20T08:25:54;16.40;1.00
15452;DHT22;7827;53.594;9.938;2023-05-20T08:28:24;16.20;1.00
15452;DHT22;7827;53.594;9.938;2023-05-20T08:30:53;16.00;99.90
15452;DHT22;7827;53.594;9.938;2023-05-20T08:33:21;15.90;1.00
15452;DHT22;7827;53.594;9.938;2023-05-20T08:35:50;16.00;1.00
15452;DHT22;7827;53.594;9.938;2023-05-20T08:38:19;16.20;1.00
15452;DHT22;7827;53.594;9.938;2023-05-20T08:40:51;16.10;99.90
15452;DHT22;7827;53.594;9.938;2023-05-20T08:43:20;16.20;99.90
15452;DHT22;7827;53.594;9.938;2023-05-20T08:45:49;16.40;99.90
15452;DHT22;7827;53.594;9.938;2023-05-20T08:48:22;16.40;17.30
15452;DHT22;7827;53.594;9.938;2023-05-20T08:50:52;16.60;96.50
15452;DHT22;7827;53.594;9.938;2023-05-20T08:53:26;16.60;1.00
15452;DHT22;7827;53.594;9.938;2023-05-20T08:55:55;16.40;1.00
15452;DHT22;7827;53.594;9.938;2023-05-20T08:58:30;16.30;27.90
15452;DHT22;7827;53.594;9.938;2023-05-20T09:00:59;16.20;1.00
15452;DHT22;7827;53.594;9.938;2023-05-20T09:03:28;16.20;1.00
15452;DHT22;7827;53.594;9.938;2023-05-20T09:06:03;16.30;57.10
15452;DHT22;7827;53.594;9.938;2023-05-20T09:08:33;16.50;1.00
15452;DHT22;7827;53.594;9.938;2023-05-20T09:11:02;16.70;1.00
15452;DHT22;7827;53.594;9.938;2023-05-20T09:13:31;16.60;1.00
15452;DHT22;7827;53.594;9.938;2023-05-20T09:16:00;16.40;1.00
15452;DHT22;7827;53.594;9.938;2023-05-20T09:18:29;16.40;1.00
15452;DHT22;7827;53.594;9.938;2023-05-20T09:21:03;16.40;1.00
15452;DHT22;7827;53.594;9.938;2023-05-20T09:23:35;16.50;1.00
15452;DHT22;7827;53.594;9.938;2023-05-20T09:26:04;16.50;1.00
15452;DHT22;7827;53.594;9.938;2023-05-20T09:28:32;16.50;1.00
15452;DHT22;7827;53.594;9.938;2023-05-20T09:31:04;16.40;1.00
15452;DHT22;7827;53.594;9.938;2023-05-20T09:33:36;16.40;1.00
15452;DHT22;7827;53.594;9.938;2023-05-20T09:36:07;16.30;1.00
15452;DHT22;7827;53.594;9.938;2023-05-20T09:38:38;16.20;1.00
15452;DHT22;7827;53.594;9.938;2023-05-20T09:41:11;16.30;1.00
15452;DHT22;7827;53.594;9.938;2023-05-20T09:43:41;16.30;1.00
15452;DHT22;7827;53.594;9.938;2023-05-20T09:46:10;16.50;1.00
15452;DHT22;7827;53.594;9.938;2023-05-20T09:48:38;16.70;1.00
15452;DHT22;7827;53.594;9.938;2023-05-20T09:51:07;16.90;1.00
15452;DHT22;7827;53.594;9.938;2023-05-20T09:53:40;16.90;1.00
15452;DHT22;7827;53.594;9.938;2023-05-20T09:56:09;17.00;1.00
15452;DHT22;7827;53.594;9.938;2023-05-20T09:58:39;17.00;1.00
15452;DHT22;7827;53.594;9.938;2023-05-20T10:01:11;16.90;1.00
15452;DHT22;7827;53.594;9.938;2023-05-20T10:03:39;16.90;1.00
15452;DHT22;7827;53.594;9.938;2023-05-20T10:06:24;16.80;1.00
15452;DHT22;7827;53.594;9.938;2023-05-20T10:09:13;16.80;1.00
15452;DHT22;7827;53.594;9.938;2023-05-20T10:12:00;16.70;1.00
15452;DHT22;7827;53.594;9.938;2023-05-20T10:14:42;16.60;1.00
15452;DHT22;7827;53.594;9.938;2023-05-20T10:17:22;16.60;1.00
15452;DHT22;7827;53.594;9.938;2023-05-20T10:19:57;16.60;1.00
15452;DHT22;7827;53.594;9.938;2023-05-20T10:22:27;16.50;1.00
15452;DHT22;7827;53.594;9.938;2023-05-20T10:25:01;16.40;1.00
15452;DHT22;7827;53.594;9.938;2023-05-20T10:27:42;16.30;1.00
15452;DHT22;7827;53.594;9.938;2023-05-20T10:30:15;16.20;1.00
15452;DHT22;7827;53.594;9.938;2023-05-20T10:32:52;16.20;1.00
15452;DHT22;7827;53.594;9.938;2023-05-20T10:35:23;16.20;1.00
15452;DHT22;7827;53.594;9.938;2023-05-20T10:37:54;16.20;37.00
15452;DHT22;7827;53.594;9.938;2023-05-20T10:40:37;16.30;46.30
15452;DHT22;7827;53.594;9.938;2023-05-20T10:43:10;16.50;1.00
15452;DHT22;7827;53.594;9.938;2023-05-20T10:45:47;16.50;1.00
15452;DHT22;7827;53.594;9.938;2023-05-20T10:48:22;16.60;37.30
15452;DHT22;7827;53.594;9.938;2023-05-20T10:50:53;16.60;1.00
15452;DHT22;7827;53.594;9.938;2023-05-20T10:53:25;16.50;1.00
15452;DHT22;7827;53.594;9.938;2023-05-20T10:56:01;16.40;1.00
15452;DHT22;7827;53.594;9.938;2023-05-20T10:58:36;16.10;45.30
15452;DHT22;7827;53.594;9.938;2023-05-20T11:01:05;16.20;21.50
15452;DHT22;7827;53.594;9.938;2023-05-20T11:03:34;16.30;99.90
15452;DHT22;7827;53.594;9.938;2023-05-20T11:06:10;16.40;62.60
15452;DHT22;7827;53.594;9.938;2023-05-20T11:08:42;16.40;99.90
15452;DHT22;7827;53.594;9.938;2023-05-20T11:11:12;16.40;99.90
15452;DHT22;7827;53.594;9.938;2023-05-20T11:13:42;16.40;99.90
15452;DHT22;7827;53.594;9.938;2023-05-20T11:16:10;16.50;99.90
15452;DHT22;7827;53.594;9.938;2023-05-20T11:18:39;16.60;1.00
15452;DHT22;7827;53.594;9.938;2023-05-20T11:21:07;16.60;1.00
15452;DHT22;7827;53.594;9.938;2023-05-20T11:23:35;16.60;1.00
15452;DHT22;7827;53.594;9.938;2023-05-20T11:26:07;16.60;1.00
15452;DHT22;7827;53.594;9.938;2023-05-20T11:28:37;16.70;1.00
15452;DHT22;7827;53.594;9.938;2023-05-20T11:31:06;16.60;21.80
15452;DHT22;7827;53.594;9.938;2023-05-20T11:33:39;16.50;99.90
15452;DHT22;7827;53.594;9.938;2023-05-20T11:36:09;16.60;1.00
15452;DHT22;7827;53.594;9.938;2023-05-20T11:38:53;16.50;1.00
15452;DHT22;7827;53.594;9.938;2023-05-20T11:41:23;16.60;1.00
15452;DHT22;7827;53.594;9.938;2023-05-20T11:44:00;16.50;1.00
15452;DHT22;7827;53.594;9.938;2023-05-20T11:46:28;16.40;1.00
15452;DHT22;7827;53.594;9.938;2023-05-20T11:48:57;16.40;1.00
15452;DHT22;7827;53.594;9.938;2023-05-20T11:51:26;16.50;1.00
15452;DHT22;7827;53.594;9.938;2023-05-20T11:53:59;16.50;1.00
15452;DHT22;7827;53.594;9.938;2023-05-20T11:56:28;16.50;1.00
15452;DHT22;7827;53.594;9.938;2023-05-20T11:58:59;16.50;1.00
15452;DHT22;7827;53.594;9.938;2023-05-20T12:01:30;16.50;1.00
15452;DHT22;7827;53.594;9.938;2023-05-20T12:03:59;16.50;1.00
15452;DHT22;7827;53.594;9.938;2023-05-20T12:06:28;16.50;1.00
15452;DHT22;7827;53.594;9.938;2023-05-20T12:08:59;16.50;28.80
15452;DHT22;7827;53.594;9.938;2023-05-20T12:11:33;16.50;99.90
15452;DHT22;7827;53.594;9.938;2023-05-20T12:14:04;16.40;1.00
15452;DHT22;7827;53.594;9.938;2023-05-20T12:16:33;16.30;1.00
15452;DHT22;7827;53.594;9.938;2023-05-20T12:19:03;16.30;29.80
15452;DHT22;7827;53.594;9.938;2023-05-20T12:21:31;16.30;66.40
15452;DHT22;7827;53.594;9.938;2023-05-20T12:24:00;16.30;99.90
15452;DHT22;7827;53.594;9.938;2023-05-20T12:26:31;16.40;99.90
15452;DHT22;7827;53.594;9.938;2023-05-20T12:29:01;16.40;1.00
15452;DHT22;7827;53.594;9.938;2023-05-20T12:31:31;16.40;1.00
15452;DHT22;7827;53.594;9.938;2023-05-20T12:34:01;16.40;1.00
15452;DHT22;7827;53.594;9.938;2023-05-20T12:36:30;16.20;37.10
15452;DHT22;7827;53.594;9.938;2023-05-20T12:38:59;16.20;99.90
15452;DHT22;7827;53.594;9.938;2023-05-20T12:41:28;16.10;99.90
15452;DHT22;7827;53.594;9.938;2023-05-20T12:43:56;16.10;1.00
15452;DHT22;7827;53.594;9.938;2023-05-20T12:46:25;16.20;99.90
15452;DHT22;7827;53.594;9.938;2023-05-20T12:48:54;16.20;1.00
15452;DHT22;7827;53.594;9.938;2023-05-20T12:51:23;16.30;99.90
15452;DHT22;7827;53.594;9.938;2023-05-20T12:53:51;16.30;99.90
15452;DHT22;7827;53.594;9.938;2023-05-20T12:56:20;16.30;1.00
15452;DHT22;7827;53.594;9.938;2023-05-20T12:58:49;16.40;1.00
15452;DHT22;7827;53.594;9.938;2023-05-20T13:01:18;16.30;99.90
15452;DHT22;7827;53.594;9.938;2023-05-20T13:03:46;16.30;99.90
15452;DHT22;7827;53.594;9.938;2023-05-20T13:06:20;16.30;99.90
15452;DHT22;7827;53.594;9.938;2023-05-20T13:08:48;16.30;1.00
15452;DHT22;7827;53.594;9.938;2023-05-20T13:11:16;16.20;99.90
15452;DHT22;7827;53.594;9.938;2023-05-20T13:13:45;16.20;1.00
15452;DHT22;7827;53.594;9.938;2023-05-20T13:16:13;16.30;99.90
15452;DHT22;7827;53.594;9.938;2023-05-20T13:18:42;16.40;99.90
15452;DHT22;7827;53.594;9.938;2023-05-20T13:21:11;16.50;1.00
15452;DHT22;7827;53.594;9.938;2023-05-20T13:23:40;16.50;1.00
15452;DHT22;7827;53.594;9.938;2023-05-20T13:26:09;16.40;16.60
15452;DHT22;7827;53.594;9.938;2023-05-20T13:28:38;16.40;15.40
15452;DHT22;7827;53.594;9.938;2023-05-20T13:31:06;16.50;1.00
15452;DHT22;7827;53.594;9.938;2023-05-20T13:33:35;16.40;1.00
15452;DHT22;7827;53.594;9.938;2023-05-20T13:36:04;16.30;1.00
15452;DHT22;7827;53.594;9.938;2023-05-20T13:38:33;16.30;1.00
15452;DHT22;7827;53.594;9.938;2023-05-20T13:41:04;16.20;1.00
15452;DHT22;7827;53.594;9.938;2023-05-20T13:43:33;16.20;1.00
15452;DHT22;7827;53.594;9.938;2023-05-20T13:46:01;16.30;15.00
15452;DHT22;7827;53.594;9.938;2023-05-20T13:48:30;16.30;1.00
15452;DHT22;7827;53.594;9.938;2023-05-20T13:50:58;16.30;1.00
15452;DHT22;7827;53.594;9.938;2023-05-20T13:53:27;16.20;1.00
15452;DHT22;7827;53.594;9.938;2023-05-20T13:55:56;16.30;1.00
15452;DHT22;7827;53.594;9.938;2023-05-20T13:58:26;16.30;1.00
15452;DHT22;7827;53.594;9.938;2023-05-20T14:00:55;16.50;43.90
15452;DHT22;7827;53.594;9.938;2023-05-20T14:03:23;16.50;1.00
15452;DHT22;7827;53.594;9.938;2023-05-20T14:05:52;16.60;1.00
15452;DHT22;7827;53.594;9.938;2023-05-20T14:08:20;16.50;1.00
15452;DHT22;7827;53.594;9.938;2023-05-20T14:10:49;16.50;1.00
15452;DHT22;7827;53.594;9.938;2023-05-20T14:13:20;16.50;1.00
15452;DHT22;7827;53.594;9.938;2023-05-20T14:15:51;16.50;1.00
15452;DHT22;7827;53.594;9.938;2023-05-20T14:18:21;16.50;1.00
15452;DHT22;7827;53.594;9.938;2023-05-20T14:20:50;16.40;1.00
15452;DHT22;7827;53.594;9.938;2023-05-20T14:23:18;16.40;1.00
15452;DHT22;7827;53.594;9.938;2023-05-20T14:25:47;16.50;1.00
15452;DHT22;7827;53.594;9.938;2023-05-20T14:28:15;16.50;1.00
15452;DHT22;7827;53.594;9.938;2023-05-20T14:30:43;16.60;1.00
15452;DHT22;7827;53.594;9.938;2023-05-20T14:33:13;16.70;1.00
15452;DHT22;7827;53.594;9.938;2023-05-20T14:35:42;16.70;1.00
15452;DHT22;7827;53.594;9.938;2023-05-20T14:38:10;16.70;99.90
15452;DHT22;7827;53.594;9.938;2023-05-20T14:40:39;16.70;1.00
15452;DHT22;7827;53.594;9.938;2023-05-20T14:43:07;16.70;99.90
15452;DHT22;7827;53.594;9.938;2023-05-20T14:45:35;16.60;1.00
15452;DHT22;7827;53.594;9.938;2023-05-20T14:48:04;16.60;1.00
15452;DHT22;7827;53.594;9.938;2023-05-20T14:50:35;16.60;1.00
15452;DHT22;7827;53.594;9.938;2023-05-20T14:53:03;16.60;1.00
15452;DHT22;7827;53.594;9.938;2023-05-20T14:55:32;16.60;1.00
15452;DHT22;7827;53.594;9.938;2023-05-20T14:58:00;16.50;99.90
15452;DHT22;7827;53.594;9.938;2023-05-20T15:00:28;16.60;1.00
15452;DHT22;7827;53.594;9.938;2023-05-20T15:02:58;16.50;1.00
15452;DHT22;7827;53.594;9.938;2023-05-20T15:05:27;16.40;1.00
15452;DHT22;7827;53.594;9.938;2023-05-20T15:07:57;16.30;66.80
15452;DHT22;7827;53.594;9.938;2023-05-20T15:10:25;16.20;99.90
15452;DHT22;7827;53.594;9.938;2023-05-20T15:12:54;16.10;99.90
15452;DHT22;7827;53.594;9.938;2023-05-20T15:15:22;16.00;99.90
15452;DHT22;7827;53.594;9.938;2023-05-20T15:17:50;15.80;1.00
15452;DHT22;7827;53.594;9.938;2023-05-20T15:20:20;15.90;1.00
15452;DHT22;7827;53.594;9.938;2023-05-20T15:22:48;16.00;1.00
15452;DHT22;7827;53.594;9.938;2023-05-20T15:25:18;16.00;1.00
15452;DHT22;7827;53.594;9.938;2023-05-20T15:27:47;16.10;1.00
15452;DHT22;7827;53.594;9.938;2023-05-20T15:30:15;16.10;99.90
15452;DHT22;7827;53.594;9.938;2023-05-20T15:32:44;16.10;1.00
15452;DHT22;7827;53.594;9.938;2023-05-20T15:35:12;16.10;1.00
15452;DHT22;7827;53.594;9.938;2023-05-20T15:37:41;16.20;1.00
15452;DHT22;7827;53.594;9.938;2023-05-20T15:40:10;16.20;99.90
15452;DHT22;7827;53.594;9.938;2023-05-20T15:42:40;16.30;1.00
15452;DHT22;7827;53.594;9.938;2023-05-20T15:45:09;16.20;1.00
15452;DHT22;7827;53.594;9.938;2023-05-20T15:47:38;16.30;1.00
15452;DHT22;7827;53.594;9.938;2023-05-20T15:50:07;16.30;1.00
15452;DHT22;7827;53.594;9.938;2023-05-20T15:52:37;16.30;1.00
15452;DHT22;7827;53.594;9.938;2023-05-20T15:55:06;16.20;1.00
15452;DHT22;7827;53.594;9.938;2023-05-20T15:57:36;16.20;1.00
15452;DHT22;7827;53.594;9.938;2023-05-20T16:00:07;16.20;1.00
15452;DHT22;7827;53.594;9.938;2023-05-20T16:02:37;16.20;99.90
15452;DHT22;7827;53.594;9.938;2023-05-20T16:05:06;16.20;1.00
15452;DHT22;7827;53.594;9.938;2023-05-20T16:07:35;16.10;1.00
15452;DHT22;7827;53.594;9.938;2023-05-20T16:10:04;16.20;1.00
15452;DHT22;7827;53.594;9.938;2023-05-20T16:12:33;16.40;1.00